Time;durP1;ratioP1;P1;durP2;ratioP2;P2;SDS_P1;SDS_P2;PMS_P1;PMS_P2;Temp;Humidity;BMP_temperature;BMP_pressure;BME280_temperature;BME280_humidity;BME280_pressure;Samples;Min_cycle;Max_cycle;Signal;HPM_P1;HPM_P2
2022/04/21 00:00:17;;;;;;;22.25;16.38;;;;;;;17.20;40.28;101220.28;5092017;28;20028;-76
2022/04/21 00:02:43;;;;;;;27.15;19.98;;;;;;;16.98;40.66;101217.97;5092268;28;20031;-76
2022/04/21 00:05:09;;;;;;;23.90;17.40;;;;;;;16.88;40.79;101221.22;5092266;28;20092;-76
2022/04/21 00:07:36;;;;;;;24.67;17.27;;;;;;;16.87;40.63;101225.13;5092322;28;20031;-77
2022/04/21 00:10:03;;;;;;;24.55;17.15;;;;;;;16.73;40.84;101222.69;5091557;28;20024;-76
2022/04/21 00:12:29;;;;;;;22.30;16.98;;;;;;;16.77;40.91;101223.59;5092298;28;20024;-76
2022/04/21 00:14:55;;;;;;;20.00;16.25;;;;;;;16.88;40.34;101224.78;5092319;28;20028;-76
2022/04/21 00:17:20;;;;;;;23.08;16.77;;;;;;;16.81;40.35;101223.72;5092258;28;20382;-77
2022/04/21 00:19:46;;;;;;;22.85;19.08;;;;;;;16.71;40.51;101218.66;5081354;28;20039;-77
2022/04/21 00:24:55;;;;;;;27.80;17.42;;;;;;;17.12;39.84;101210.16;5075931;28;20039;-77
2022/04/21 00:27:21;;;;;;;25.95;18.65;;;;;;;17.22;39.52;101208.88;5075800;28;20108;-77
2022/04/21 00:29:46;;;;;;;23.08;17.90;;;;;;;17.25;39.93;101197.16;5075785;28;20055;-77
2022/04/21 00:32:13;;;;;;;20.85;15.13;;;;;;;17.29;39.71;101200.81;5075762;28;20033;-76
2022/04/21 00:34:38;;;;;;;18.60;13.45;;;;;;;17.25;39.75;101204.66;5075674;28;20024;-76
2022/04/21 00:37:05;;;;;;;16.50;10.85;;;;;;;17.15;39.77;101194.84;5085441;28;20036;-76
2022/04/21 00:39:31;;;;;;;14.77;12.05;;;;;;;17.01;40.03;101195.22;5095894;28;20062;-77
2022/04/21 00:42:01;;;;;;;17.42;12.35;;;;;;;16.80;40.07;101195.34;5095555;28;20063;-77
2022/04/21 00:44:27;;;;;;;;;;;;;;;16.71;40.00;101202.13;5076214;28;20028;-77
2022/04/21 00:46:55;;;;;;;14.02;10.93;;;;;;;16.96;39.40;101198.22;5075531;28;19919;-76
2022/04/21 00:49:21;;;;;;;16.10;11.70;;;;;;;16.97;39.59;101196.25;5075486;28;20028;-76
2022/04/21 00:51:49;;;;;;;19.13;13.85;;;;;;;16.95;39.46;101188.31;5075337;28;20051;-76
2022/04/21 00:54:15;;;;;;;16.58;12.90;;;;;;;16.90;39.26;101196.81;5086982;28;20055;-76
2022/04/21 00:56:42;;;;;;;15.45;12.32;;;;;;;16.90;39.35;101188.53;5095538;28;20024;-77
2022/04/21 00:59:10;;;;;;;19.27;13.63;;;;;;;17.05;39.15;101185.09;5095548;28;20078;-77
2022/04/21 01:04:22;;;;;;;16.77;13.15;;;;;;;16.74;39.59;101185.66;5075271;28;20453;-77
2022/04/21 01:06:47;;;;;;;19.35;12.80;;;;;;;16.91;39.19;101187.38;5075297;28;20024;-77
2022/04/21 01:09:13;;;;;;;21.95;14.75;;;;;;;16.87;39.23;101172.69;5075074;28;20036;-77
2022/04/21 01:11:39;;;;;;;17.85;13.85;;;;;;;16.99;39.12;101172.66;5075026;28;20024;-77
2022/04/21 01:14:04;;;;;;;19.27;13.98;;;;;;;16.97;38.99;101169.44;5074978;28;20059;-77
2022/04/21 01:16:30;;;;;;;17.85;13.68;;;;;;;17.01;39.16;101166.81;5074929;28;20468;-76
2022/04/21 01:18:56;;;;;;;21.73;13.95;;;;;;;16.97;38.90;101179.69;5074910;28;20024;-76
2022/04/21 01:21:22;;;;;;;18.95;14.32;;;;;;;16.92;39.26;101161.41;5074702;28;20046;-76
2022/04/21 01:23:48;;;;;;;19.75;15.20;;;;;;;16.90;38.94;101166.47;5074787;28;20074;-77
2022/04/21 01:26:16;;;;;;;20.45;14.95;;;;;;;16.90;39.07;101161.75;5074728;28;20417;-76
2022/04/21 01:28:44;;;;;;;20.98;15.02;;;;;;;16.86;39.04;101163.59;5074724;28;20479;-76
2022/04/21 01:31:09;;;;;;;20.42;15.45;;;;;;;16.85;39.03;101161.16;5074098;28;20020;-77
2022/04/21 01:33:35;;;;;;;19.23;14.48;;;;;;;16.84;39.10;101154.84;5074613;28;20036;-77
2022/04/21 01:36:00;;;;;;;21.95;15.90;;;;;;;16.84;39.22;101165.88;5074893;28;20115;-76
2022/04/21 01:41:10;;;;;;;24.33;15.90;;;;;;;16.88;39.03;101158.53;5094487;28;20055;-76
2022/04/21 01:43:37;;;;;;;24.58;15.65;;;;;;;16.93;38.96;101149.22;5093389;28;20494;-76
2022/04/21 01:46:03;;;;;;;18.05;15.02;;;;;;;16.88;39.04;101158.53;5093862;28;20453;-77
2022/04/21 01:48:29;;;;;;;20.33;15.55;;;;;;;16.94;38.67;101155.56;5074432;28;20529;-76
2022/04/21 01:50:55;;;;;;;15.70;14.00;;;;;;;17.02;39.00;101160.16;5074220;28;20020;-76
2022/04/21 01:53:21;;;;;;;19.95;14.63;;;;;;;17.00;39.00;101149.44;5074138;28;20028;-75
2022/04/21 01:55:47;;;;;;;18.70;14.65;;;;;;;17.01;38.56;101145.53;5074213;28;20039;-77
2022/04/21 01:58:12;;;;;;;17.15;14.43;;;;;;;17.00;38.65;101146.66;5092420;28;20028;-77
2022/04/21 02:00:39;;;;;;;23.17;17.38;;;;;;;17.00;38.79;101148.63;5092969;28;20024;-76
2022/04/21 02:03:05;;;;;;;18.45;15.65;;;;;;;16.81;39.11;101146.47;5094157;28;20107;-76
2022/04/21 02:05:31;;;;;;;22.23;16.58;;;;;;;16.96;39.09;101148.53;5084175;28;20536;-77
2022/04/21 02:07:56;;;;;;;20.88;16.42;;;;;;;16.79;39.70;101141.28;5077833;28;20033;-76
2022/04/21 02:10:22;;;;;;;23.73;17.15;;;;;;;16.60;40.56;101135.50;5073899;28;20490;-76
2022/04/21 02:12:48;;;;;;;22.35;17.02;;;;;;;16.60;40.40;101147.34;5072639;28;20509;-76
2022/04/21 02:15:14;;;;;;;28.80;19.63;;;;;;;16.57;40.94;101147.22;5072545;28;20379;-76
2022/04/21 02:17:40;;;;;;;24.55;17.85;;;;;;;16.49;40.98;101142.63;5086645;28;20020;-76
2022/04/21 02:20:10;;;;;;;19.60;16.20;;;;;;;16.53;41.04;101140.78;5093875;28;20035;-76
2022/04/21 02:22:36;;;;;;;35.70;19.20;;;;;;;16.49;41.01;101143.44;5093862;28;20062;-76
2022/04/21 02:25:03;;;;;;;25.38;18.55;;;;;;;16.50;41.03;101145.03;5093832;28;20024;-76
2022/04/21 02:27:29;;;;;;;22.00;16.00;;;;;;;16.56;41.27;101140.09;5081777;28;20055;-77
2022/04/21 02:29:55;;;;;;;27.17;17.95;;;;;;;16.31;41.76;101140.06;5073525;28;20028;-76
2022/04/21 02:32:21;;;;;;;26.80;17.33;;;;;;;16.47;41.31;101142.94;5073474;28;20035;-76
2022/04/21 02:34:47;;;;;;;28.27;17.98;;;;;;;16.29;41.75;101141.53;5072156;28;20017;-76
2022/04/21 02:37:13;;;;;;;26.58;18.63;;;;;;;16.40;41.65;101144.66;5074328;28;20042;-76
2022/04/21 02:39:38;;;;;;;25.75;18.10;;;;;;;16.51;41.49;101141.13;5073324;28;20070;-77
2022/04/21 02:42:04;;;;;;;24.95;16.25;;;;;;;16.35;41.86;101140.19;5082203;28;20044;-77
2022/04/21 02:44:31;;;;;;;25.90;18.50;;;;;;;16.42;41.67;101139.63;5092221;28;20024;-76
2022/04/21 02:46:58;;;;;;;25.58;19.10;;;;;;;16.49;41.40;101137.91;5082379;28;20396;-76
2022/04/21 02:49:24;;;;;;;23.05;16.92;;;;;;;16.53;41.25;101141.56;5073138;28;20024;-76
2022/04/21 02:51:50;;;;;;;23.40;18.08;;;;;;;16.47;40.79;101139.38;5073125;28;20020;-76
2022/04/21 02:59:44;;;;;;;23.58;16.67;;;;;;;16.58;40.49;101138.59;5073297;28;20039;-77
2022/04/21 03:02:10;;;;;;;38.28;21.83;;;;;;;16.73;40.46;101130.81;5072855;28;20479;-76
2022/04/21 03:04:36;;;;;;;26.70;18.17;;;;;;;16.84;40.34;101134.72;5077404;28;20126;-76
2022/04/21 03:07:02;;;;;;;30.05;16.92;;;;;;;16.98;40.22;101134.38;5092351;28;20020;-76
2022/04/21 03:09:29;;;;;;;26.50;18.48;;;;;;;17.34;39.75;101131.56;5092777;28;20478;-76
2022/04/21 03:12:01;;;;;;;27.70;19.73;;;;;;;17.77;39.29;101129.25;5093030;28;20099;-76
2022/04/21 03:14:26;;;;;;;28.92;21.60;;;;;;;17.72;39.47;101127.53;5092989;28;20035;-77
2022/04/21 03:16:52;;;;;;;32.80;22.88;;;;;;;17.96;39.57;101134.91;5081780;28;20028;-76
2022/04/21 03:19:17;;;;;;;31.60;23.65;;;;;;;18.02;39.72;101127.97;5072639;28;20028;-76
2022/04/21 03:24:29;;;;;;;36.40;23.98;;;;;;;18.08;40.24;101132.09;5052600;28;20027;-77
2022/04/21 03:26:55;;;;;;;42.33;25.27;;;;;;;18.31;40.33;101129.53;5072320;28;20028;-76
2022/04/21 03:29:21;;;;;;;37.55;24.90;;;;;;;18.48;40.55;101128.38;5092741;28;20028;-76
2022/04/21 03:31:48;;;;;;;41.50;26.52;;;;;;;18.59;40.60;101132.22;5092661;28;20085;-77
2022/04/21 03:34:15;;;;;;;39.05;24.77;;;;;;;18.75;40.72;101124.75;5092743;28;20473;-77
2022/04/21 03:36:48;;;;;;;38.28;24.27;;;;;;;18.74;40.66;101136.16;5084171;28;20063;-77
2022/04/21 03:39:15;;;;;;;34.88;23.20;;;;;;;18.78;40.77;101128.75;5092764;28;20036;-77
2022/04/21 03:41:41;;;;;;;31.60;21.42;;;;;;;18.79;40.83;101127.56;5092235;28;20056;-76
2022/04/21 03:44:06;;;;;;;31.85;21.38;;;;;;;18.67;41.09;101124.94;5092647;28;20097;-76
2022/04/21 03:46:32;;;;;;;37.30;24.08;;;;;;;18.63;41.46;101130.34;5086264;28;20025;-77
2022/04/21 03:48:58;;;;;;;31.52;22.42;;;;;;;18.74;41.41;101125.91;5072339;28;20040;-77
2022/04/21 03:51:25;;;;;;;32.25;22.45;;;;;;;18.80;41.58;101129.97;5072273;28;20028;-77
2022/04/21 03:53:51;;;;;;;34.53;23.02;;;;;;;18.88;41.62;101130.16;5072013;28;20021;-76
2022/04/21 03:56:17;;;;;;;38.40;24.90;;;;;;;18.83;41.67;101128.47;5078289;28;20131;-76
2022/04/21 03:58:43;;;;;;;38.80;23.88;;;;;;;18.88;42.11;101119.88;5092474;28;20490;-77
2022/04/21 04:01:08;;;;;;;40.05;24.10;;;;;;;18.97;42.10;101119.72;5092368;28;20351;-77
2022/04/21 04:03:34;;;;;;;37.60;23.48;;;;;;;19.17;41.73;101126.06;5092348;28;20035;-76
2022/04/21 04:06:00;;;;;;;33.60;21.13;;;;;;;19.20;41.99;101128.94;5091584;28;20024;-77
2022/04/21 04:11:10;;;;;;;26.58;19.20;;;;;;;19.35;41.84;101128.09;5092348;28;20406;-77
2022/04/21 04:13:35;;;;;;;27.88;19.38;;;;;;;19.32;42.02;101133.53;5092287;28;20117;-77
2022/04/21 04:16:01;;;;;;;33.17;19.67;;;;;;;19.31;42.03;101138.28;5077533;28;20506;-78
2022/04/21 04:18:29;;;;;;;26.70;16.95;;;;;;;19.28;42.50;101133.47;5091030;28;20085;-77
2022/04/21 04:20:54;;;;;;;26.25;14.68;;;;;;;19.71;41.79;101137.16;5092161;28;20028;-77
2022/04/21 04:23:22;;;;;;;27.15;16.15;;;;;;;19.83;41.81;101139.78;5092253;28;20036;-77
2022/04/21 04:25:49;;;;;;;26.38;15.95;;;;;;;19.97;41.77;101135.69;5090532;28;20109;-77
2022/04/21 04:28:14;;;;;;;27.65;15.98;;;;;;;20.12;41.62;101143.09;5071952;28;20035;-77
2022/04/21 04:30:40;;;;;;;21.70;13.82;;;;;;;20.18;41.60;101131.34;5070652;28;20025;-78
2022/04/21 04:33:07;;;;;;;26.05;15.20;;;;;;;20.15;41.92;101137.59;5071906;28;20410;-77
2022/04/21 04:35:32;;;;;;;28.42;14.82;;;;;;;20.21;41.74;101130.59;5071857;28;20029;-77
2022/04/21 04:38:01;;;;;;;25.83;14.10;;;;;;;20.12;42.00;101132.00;5090742;28;20028;-76
2022/04/21 04:40:27;;;;;;;30.08;15.02;;;;;;;20.18;42.15;101134.13;5091724;28;20049;-77
2022/04/21 04:42:54;;;;;;;23.73;14.07;;;;;;;20.28;41.90;101134.66;5092006;28;20032;-77
2022/04/21 04:48:04;;;;;;;27.20;14.52;;;;;;;20.14;42.35;101130.47;5072319;28;20163;-77
2022/04/21 04:50:31;;;;;;;30.10;14.00;;;;;;;19.93;42.87;101121.75;5071706;28;20103;-76
2022/04/21 04:52:58;;;;;;;29.85;15.38;;;;;;;19.99;42.85;101116.69;5071715;28;20432;-77
2022/04/21 04:55:24;;;;;;;32.17;14.68;;;;;;;19.92;43.04;101115.38;5072652;28;20020;-77
2022/04/21 04:57:50;;;;;;;25.80;13.65;;;;;;;19.93;43.00;101116.19;5091884;28;20024;-76
2022/04/21 05:00:16;;;;;;;23.33;14.23;;;;;;;19.99;42.89;101111.94;5091860;28;20032;-76
2022/04/21 05:02:41;;;;;;;30.05;15.05;;;;;;;19.98;43.00;101115.91;5090433;28;20024;-76
2022/04/21 05:05:08;;;;;;;28.85;14.48;;;;;;;19.94;43.39;101117.78;5092966;28;20085;-76
2022/04/21 05:07:35;;;;;;;28.33;14.88;;;;;;;19.98;43.25;101121.44;5076582;28;20032;-77
2022/04/21 05:10:01;;;;;;;27.33;14.57;;;;;;;19.72;43.94;101126.84;5075118;28;20028;-76
2022/04/21 05:12:27;;;;;;;36.22;16.05;;;;;;;19.78;43.77;101128.19;5073691;28;20059;-76
2022/04/21 05:14:53;;;;;;;25.85;14.88;;;;;;;19.68;44.04;101129.56;5083266;28;20051;-76
2022/04/21 05:17:18;;;;;;;24.02;14.55;;;;;;;19.52;44.60;101120.50;5077551;28;20444;-76
2022/04/21 05:19:45;;;;;;;31.40;15.40;;;;;;;19.66;44.22;101131.91;5073716;28;20024;-77
2022/04/21 05:22:13;;;;;;;27.50;14.07;;;;;;;19.72;44.28;101133.19;5074802;28;20029;-77
2022/04/21 05:24:40;;;;;;;33.17;15.88;;;;;;;19.93;43.65;101135.59;5088191;28;20073;-76
2022/04/21 05:27:07;;;;;;;27.30;14.52;;;;;;;19.99;43.63;101130.56;5080924;28;20067;-76
2022/04/21 05:32:20;;;;;;;31.73;13.23;;;;;;;20.03;43.67;101135.03;5074734;28;20082;-77
2022/04/21 05:34:46;;;;;;;28.63;13.35;;;;;;;20.03;43.78;101131.44;5074778;28;20028;-76
2022/04/21 05:37:13;;;;;;;31.50;14.20;;;;;;;20.13;43.54;101130.84;5088667;28;20569;-77
2022/04/21 05:39:38;;;;;;;31.08;13.30;;;;;;;19.97;43.99;101142.03;5085825;28;20028;-77
2022/04/21 05:42:06;;;;;;;30.70;15.30;;;;;;;19.88;44.19;101139.50;5074168;28;20055;-77
2022/04/21 05:44:32;;;;;;;28.92;13.63;;;;;;;19.94;44.08;101139.97;5074410;28;20025;-78
2022/04/21 05:46:58;;;;;;;26.77;14.02;;;;;;;20.05;44.09;101142.97;5086086;28;20125;-77
2022/04/21 05:49:24;;;;;;;39.50;14.13;;;;;;;19.94;44.34;101151.88;5110363;28;20386;-78
2022/04/21 05:51:52;;;;;;;25.77;12.70;;;;;;;20.08;44.02;101147.78;5094615;28;20065;-78
2022/04/21 05:54:18;;;;;;;39.35;14.13;;;;;;;20.04;44.14;101158.00;5094477;28;20028;-77
2022/04/21 05:56:44;;;;;;;25.83;13.45;;;;;;;20.33;43.33;101149.06;5080261;28;20025;-79
2022/04/21 05:59:10;;;;;;;25.77;11.30;;;;;;;20.29;43.62;101156.50;5072455;28;20024;-80
2022/04/21 06:01:36;;;;;;;23.80;11.95;;;;;;;19.98;44.38;101162.25;5070828;28;20024;-78
2022/04/21 06:04:02;;;;;;;21.77;10.98;;;;;;;20.00;44.31;101163.47;5072982;28;20028;-78
2022/04/21 06:06:28;;;;;;;29.95;12.80;;;;;;;19.99;44.27;101161.88;5073901;28;20031;-79
2022/04/21 06:08:53;;;;;;;28.15;11.95;;;;;;;19.88;44.58;101169.19;5073457;28;20025;-77
2022/04/21 06:11:19;;;;;;;26.83;11.55;;;;;;;19.91;44.33;101163.72;5064400;28;20040;-77
2022/04/21 06:13:44;;;;;;;26.45;11.50;;;;;;;19.91;44.44;101168.44;5057474;28;20497;-79
2022/04/21 06:16:10;;;;;;;29.83;11.55;;;;;;;19.83;44.60;101163.94;5057500;28;20025;-79
2022/04/21 06:18:36;;;;;;;22.63;11.05;;;;;;;19.88;44.53;101171.97;5057493;28;20025;-78
2022/04/21 06:21:03;;;;;;;22.55;9.63;;;;;;;19.88;44.44;101164.44;5057646;28;20021;-78
2022/04/21 06:23:33;;;;;;;21.63;10.70;;;;;;;19.94;44.35;101164.94;5054771;28;20036;-77
2022/04/21 06:25:59;;;;;;;22.90;10.55;;;;;;;19.84;44.66;101158.00;5056513;28;20399;-77
2022/04/21 06:28:29;;;;;;;26.52;10.35;;;;;;;19.90;44.58;101173.19;5057117;28;20094;-78
2022/04/21 06:30:54;;;;;;;;;;;;;;;19.89;44.54;101170.78;5057265;28;20033;-77
2022/04/21 06:33:20;;;;;;;25.35;9.75;;;;;;;19.92;44.35;101172.81;5057489;28;20447;-77
2022/04/21 06:35:45;;;;;;;33.85;10.30;;;;;;;19.93;44.26;101175.22;5056938;28;20043;-77
2022/04/21 06:38:12;;;;;;;23.67;9.75;;;;;;;20.06;43.95;101167.56;5057765;28;20047;-78
2022/04/21 06:40:38;;;;;;;24.60;9.23;;;;;;;20.02;44.07;101176.97;5057233;28;20064;-77
2022/04/21 06:48:01;;;;;;;24.40;9.30;;;;;;;20.03;44.18;101179.41;5056931;28;20556;-77
2022/04/21 06:48:34;;;;;;;26.55;9.05;;;;;;;20.02;44.30;101182.53;5062318;28;20073;-76
2022/04/21 06:51:00;;;;;;;21.95;8.95;;;;;;;20.10;44.14;101178.72;5058040;28;20028;-77
2022/04/21 06:53:25;;;;;;;22.73;9.20;;;;;;;20.14;43.94;101180.41;5057166;28;20025;-77
2022/04/21 06:55:51;;;;;;;24.52;9.90;;;;;;;20.12;43.91;101179.97;5057350;28;20020;-78
2022/04/21 06:58:17;;;;;;;25.85;11.48;;;;;;;20.20;43.97;101183.69;5056971;28;20039;-77
2022/04/21 07:00:42;;;;;;;19.05;9.43;;;;;;;20.42;43.27;101185.69;5059987;28;20051;-76
2022/04/21 07:03:08;;;;;;;26.95;10.40;;;;;;;20.20;43.55;101184.47;5056662;28;20032;-77
2022/04/21 07:05:34;;;;;;;18.40;8.00;;;;;;;20.11;43.56;101186.69;5055738;28;20518;-76
2022/04/21 07:08:00;;;;;;;23.10;8.55;;;;;;;20.09;43.50;101189.00;5074523;28;20413;-78
2022/04/21 07:10:26;;;;;;;33.35;8.98;;;;;;;20.13;43.12;101192.66;5073053;28;20081;-78
2022/04/21 07:12:51;;;;;;;20.13;8.77;;;;;;;20.15;42.88;101190.31;5087105;28;20090;-76
2022/04/21 07:15:17;;;;;;;28.58;10.23;;;;;;;20.25;42.18;101191.69;5070803;28;20025;-77
2022/04/21 07:17:43;;;;;;;27.40;10.32;;;;;;;20.19;42.39;101204.28;5075648;28;20056;-77
2022/04/21 07:20:11;;;;;;;24.63;8.63;;;;;;;19.99;42.45;101194.34;5072325;28;20024;-78
2022/04/21 07:22:38;;;;;;;24.65;10.15;;;;;;;19.72;42.77;101210.03;5072510;28;20162;-78
2022/04/21 07:25:06;;;;;;;17.85;7.43;;;;;;;19.70;42.59;101202.09;5070961;28;20484;-76
2022/04/21 07:27:32;;;;;;;21.13;8.40;;;;;;;20.01;41.92;101203.91;5074693;28;20067;-80
2022/04/21 07:29:58;;;;;;;32.55;10.25;;;;;;;19.87;42.33;101209.97;5071973;28;20493;-80
2022/04/21 07:32:23;;;;;;;20.42;9.27;;;;;;;19.87;41.96;101212.75;5073320;28;20055;-79
2022/04/21 07:34:49;;;;;;;22.40;9.88;;;;;;;19.86;41.79;101213.91;5075501;28;20058;-79
2022/04/21 07:37:15;;;;;;;22.45;9.38;;;;;;;19.91;41.67;101208.09;5072434;28;20021;-79
2022/04/21 07:39:42;;;;;;;23.35;9.20;;;;;;;19.79;41.71;101224.84;5071758;28;20038;-77
2022/04/21 07:42:08;;;;;;;17.23;8.60;;;;;;;19.72;41.63;101213.59;5071246;28;20569;-79
2022/04/21 07:44:35;;;;;;;26.45;9.75;;;;;;;19.76;41.62;101224.78;5077548;28;20028;-78
2022/04/21 07:47:02;;;;;;;18.48;9.30;;;;;;;19.86;41.27;101232.50;5070633;28;20695;-77
2022/04/21 07:49:46;;;;;;;18.33;8.68;;;;;;;20.09;40.71;101233.38;5071330;28;20463;-77
2022/04/21 07:55:20;;;;;;;25.85;10.07;;;;;;;19.85;40.85;101244.78;5072056;28;20563;-77
2022/04/21 07:57:46;;;;;;;17.60;8.02;;;;;;;19.90;40.67;101242.53;5069997;28;20301;-78
2022/04/21 08:00:15;;;;;;;17.75;8.57;;;;;;;19.90;40.04;101236.97;5071925;28;20016;-77
2022/04/21 08:02:42;;;;;;;18.45;8.15;;;;;;;19.85;40.07;101242.00;5072673;28;20625;-79
2022/04/21 08:05:09;;;;;;;19.20;7.72;;;;;;;19.53;40.77;101249.59;5069153;28;20474;-78
2022/04/21 08:07:36;;;;;;;10.50;6.28;;;;;;;19.40;40.74;101246.94;5071549;28;20078;-77
2022/04/21 08:10:07;;;;;;;18.17;7.97;;;;;;;19.68;40.65;101249.59;5071849;28;20048;-77
2022/04/21 08:12:49;;;;;;;22.10;7.97;;;;;;;19.79;40.40;101246.22;5071981;28;20072;-77
2022/04/21 08:15:38;;;;;;;19.33;8.38;;;;;;;20.06;40.29;101249.97;5061886;28;20103;-78
2022/04/21 08:18:05;;;;;;;17.92;8.20;;;;;;;19.99;40.54;101247.06;5080723;28;20058;-81
2022/04/21 08:20:32;;;;;;;22.23;7.88;;;;;;;20.13;40.52;101256.47;5072058;28;20028;-79
2022/04/21 08:22:58;;;;;;;18.48;7.47;;;;;;;20.19;40.32;101257.78;5076281;28;20024;-81
2022/04/21 08:33:37;;;;;;;20.00;8.75;;;;;;;20.40;38.45;101271.28;5073150;28;20039;-80
2022/04/21 08:36:03;;;;;;;17.27;8.57;;;;;;;20.57;38.38;101269.25;5071780;28;20020;-78
2022/04/21 08:38:30;;;;;;;20.50;8.80;;;;;;;20.80;37.83;101274.81;5070892;28;20467;-82
2022/04/21 08:41:03;;;;;;;20.60;9.70;;;;;;;20.90;37.71;101275.00;5069761;28;20465;-80
2022/04/21 08:43:29;;;;;;;19.80;8.75;;;;;;;20.73;38.44;101273.53;5073438;28;20429;-82
2022/04/21 08:45:55;;;;;;;20.80;9.20;;;;;;;21.05;37.82;101274.06;5072755;28;20031;-79
2022/04/21 08:48:24;;;;;;;21.13;10.68;;;;;;;21.03;37.65;101272.84;5074281;28;20033;-78
2022/04/21 08:50:51;;;;;;;21.13;10.02;;;;;;;21.14;37.38;101284.13;5073769;28;20033;-78
2022/04/21 08:53:21;;;;;;;20.70;10.30;;;;;;;21.28;37.14;101282.41;5075097;28;20031;-78
2022/04/21 08:55:48;;;;;;;26.02;11.25;;;;;;;21.36;37.56;101288.88;5075602;28;20364;-77
2022/04/21 08:58:13;;;;;;;28.23;10.68;;;;;;;21.24;37.99;101280.75;5074069;28;20032;-78
2022/04/21 09:00:42;;;;;;;19.10;10.90;;;;;;;21.45;37.46;101292.19;5072715;28;20090;-79
2022/04/21 09:03:09;;;;;;;21.27;9.30;;;;;;;21.43;37.20;101280.66;5064072;28;20034;-81
2022/04/21 09:05:35;;;;;;;19.02;10.52;;;;;;;20.96;38.07;101292.97;5068620;28;20049;-78
2022/04/21 09:08:01;;;;;;;24.92;12.25;;;;;;;21.41;37.26;101293.34;5078065;28;20025;-81
2022/04/21 09:10:28;;;;;;;29.20;11.43;;;;;;;21.27;37.71;101286.38;5072446;28;20028;-78
2022/04/21 09:12:56;;;;;;;23.15;10.38;;;;;;;21.41;37.64;101291.34;5072992;28;20028;-76
2022/04/21 09:15:27;;;;;;;24.05;10.20;;;;;;;21.41;37.74;101291.34;5070492;28;20036;-77
2022/04/21 09:17:58;;;;;;;27.00;11.93;;;;;;;21.27;37.87;101286.38;5069404;28;20024;-82
2022/04/21 09:20:33;;;;;;;23.88;11.68;;;;;;;21.60;37.40;101296.81;5072602;28;20063;-81
2022/04/21 09:23:02;;;;;;;18.70;11.20;;;;;;;21.60;37.88;101291.25;5075437;28;20032;-81
2022/04/21 09:25:30;;;;;;;23.70;12.73;;;;;;;21.47;37.94;101297.41;5072935;28;20035;-80
2022/04/21 09:27:57;;;;;;;22.05;12.05;;;;;;;21.42;37.61;101292.97;5072271;28;20269;-80
2022/04/21 09:30:24;;;;;;;29.00;12.43;;;;;;;21.53;37.56;101296.69;5070408;28;20490;-81
2022/04/21 09:32:57;;;;;;;28.52;12.75;;;;;;;21.30;37.53;101298.72;5069798;28;20434;-80
2022/04/21 09:35:28;;;;;;;27.67;10.88;;;;;;;21.32;37.56;101299.97;5072715;28;20499;-82
2022/04/21 09:37:58;;;;;;;30.52;13.00;;;;;;;21.48;37.63;101301.78;5072474;28;20534;-82
2022/04/21 09:40:29;;;;;;;27.30;11.90;;;;;;;21.85;36.92;101288.84;5071508;28;20111;-83
2022/04/21 09:43:03;;;;;;;24.98;12.20;;;;;;;21.72;37.07;101297.78;5072245;28;20040;-80
2022/04/21 09:48:24;;;;;;;22.38;11.77;;;;;;;21.55;37.38;101294.38;5072984;28;20055;-81
2022/04/21 09:50:53;;;;;;;21.05;11.93;;;;;;;21.86;37.17;101300.75;5073489;28;20128;-81
2022/04/21 09:53:20;;;;;;;20.60;11.38;;;;;;;21.86;37.31;101297.97;5071383;28;20111;-82
2022/04/21 09:55:49;;;;;;;29.13;12.55;;;;;;;21.92;37.19;101309.59;5071930;28;20494;-81
2022/04/21 09:58:15;;;;;;;18.17;10.73;;;;;;;22.18;36.93;101303.19;5071978;28;20027;-80
2022/04/21 10:00:41;;;;;;;26.25;13.30;;;;;;;21.91;36.93;101305.97;5071629;28;20029;-81
2022/04/21 10:03:08;;;;;;;27.65;11.82;;;;;;;21.98;36.61;101303.28;5085913;28;20029;-84
2022/04/21 10:05:36;;;;;;;18.58;11.75;;;;;;;22.02;36.69;101300.56;5073035;28;20031;-87
2022/04/21 10:08:04;;;;;;;22.98;11.98;;;;;;;22.02;36.81;101297.78;5072666;28;20041;-86
2022/04/21 10:10:31;;;;;;;31.38;13.35;;;;;;;22.37;36.64;101291.91;5074532;28;20032;-79
2022/04/21 10:12:59;;;;;;;24.05;11.10;;;;;;;22.23;36.70;101298.09;5074784;28;20391;-81
2022/04/21 10:15:26;;;;;;;26.55;11.88;;;;;;;21.87;37.27;101302.38;5072120;28;20025;-80
2022/04/21 10:17:52;;;;;;;25.70;11.95;;;;;;;21.66;37.50;101308.41;5072326;28;20028;-87
2022/04/21 10:20:22;;;;;;;24.40;11.80;;;;;;;21.79;37.16;101307.03;5071999;28;20028;-81
2022/04/21 10:22:49;;;;;;;24.38;12.20;;;;;;;21.82;37.16;101300.69;5068030;28;20048;-81
2022/04/21 10:25:15;;;;;;;26.67;11.35;;;;;;;21.91;37.11;101294.03;5075036;28;20059;-80
2022/04/21 10:27:44;;;;;;;30.33;13.07;;;;;;;21.93;37.02;101300.88;5074839;28;20083;-87
2022/04/21 10:30:11;;;;;;;22.30;10.40;;;;;;;21.77;37.08;101308.59;5075026;28;20493;-82
2022/04/21 10:32:47;;;;;;;24.70;11.40;;;;;;;21.87;36.59;101299.56;5072777;28;20176;-82
2022/04/21 10:35:28;;;;;;;22.67;11.27;;;;;;;21.77;36.83;101297.47;5074839;28;20020;-85
2022/04/21 10:38:12;;;;;;;31.10;10.95;;;;;;;21.32;37.78;101310.28;5075102;28;20526;-81
2022/04/21 10:41:03;;;;;;;21.77;11.20;;;;;;;21.59;37.74;101309.09;5073246;28;20059;-80
2022/04/21 10:43:50;;;;;;;31.75;12.18;;;;;;;21.50;38.07;101305.00;5071053;28;20425;-82
2022/04/21 10:46:26;;;;;;;25.02;11.25;;;;;;;21.73;37.89;101311.31;5069444;28;20044;-83
2022/04/21 10:48:52;;;;;;;24.92;12.55;;;;;;;21.65;37.90;101311.56;5082408;28;20434;-82
2022/04/21 10:57:36;;;;;;;23.98;12.15;;;;;;;22.23;36.35;101308.44;5071424;28;20078;-80
2022/04/21 11:00:03;;;;;;;34.40;13.40;;;;;;;21.96;36.92;101310.44;5075339;28;20615;-83
2022/04/21 11:02:39;;;;;;;24.85;12.27;;;;;;;21.72;37.33;101306.13;5069514;28;20037;-81
2022/04/21 11:05:35;;;;;;;25.95;12.27;;;;;;;21.77;37.19;101303.81;5071359;28;20108;-82
2022/04/21 11:08:03;;;;;;;27.23;12.77;;;;;;;21.89;37.39;101297.22;5069870;28;20028;-83
2022/04/21 11:10:38;;;;;;;27.42;12.50;;;;;;;21.81;37.26;101295.50;5070237;28;20050;-81
2022/04/21 11:13:08;;;;;;;25.75;12.82;;;;;;;21.85;37.51;101299.97;5067638;28;20419;-82
2022/04/21 11:15:37;;;;;;;27.52;13.30;;;;;;;21.78;37.80;101294.28;5068438;28;20536;-84
2022/04/21 11:18:29;;;;;;;24.90;13.25;;;;;;;21.64;37.75;101296.06;5067568;28;20047;-83
2022/04/21 11:21:26;;;;;;;24.45;12.40;;;;;;;21.70;37.68;101287.03;5070846;28;20101;-83
2022/04/21 11:23:51;;;;;;;24.55;11.90;;;;;;;21.98;37.47;101294.16;5068098;28;20089;-83
2022/04/21 11:26:24;;;;;;;27.55;14.77;;;;;;;21.91;37.78;101302.41;5069826;28;20032;-84
2022/04/21 11:28:50;;;;;;;24.40;12.75;;;;;;;22.00;37.57;101297.38;5069621;28;20123;-82
2022/04/21 11:31:20;;;;;;;29.15;13.45;;;;;;;21.93;37.46;101298.06;5069664;28;20079;-82
2022/04/21 11:33:46;;;;;;;28.63;11.73;;;;;;;22.09;37.46;101297.91;5074255;28;20048;-82
2022/04/21 11:36:15;;;;;;;31.90;13.60;;;;;;;21.94;37.69;101305.25;5077608;28;20375;-83
2022/04/21 11:38:43;;;;;;;25.52;12.57;;;;;;;22.15;37.18;101313.91;5070228;28;20048;-86
2022/04/21 11:41:12;;;;;;;20.17;10.15;;;;;;;22.07;37.22;101305.81;5071171;28;20043;-83
2022/04/21 11:43:45;;;;;;;30.00;12.30;;;;;;;22.13;37.40;101313.47;5073883;28;20478;-77
2022/04/21 11:46:12;;;;;;;23.08;11.15;;;;;;;22.03;37.26;101308.53;5065724;28;20024;-78
2022/04/21 11:48:42;;;;;;;19.52;10.55;;;;;;;21.80;37.10;101314.19;5069886;28;20020;-78
2022/04/21 11:51:09;;;;;;;25.38;12.30;;;;;;;22.06;36.85;101309.75;5067999;28;20024;-79
2022/04/21 11:53:40;;;;;;;25.13;11.50;;;;;;;22.20;36.51;101314.75;5068286;28;20028;-79
2022/04/21 11:56:08;;;;;;;26.27;12.68;;;;;;;22.17;36.52;101307.97;5069132;28;20047;-76
2022/04/21 11:58:36;;;;;;;23.05;13.10;;;;;;;22.08;36.82;101308.25;5070995;28;20024;-77
2022/04/21 12:06:39;;;;;;;;;;;;;;;22.08;36.04;101319.38;5070875;28;20040;-76